LIRS/GRS METAR and TAF weather

Enter ICAO airport designator
Station Type Date Time Source
LIRS METAR 2021/07/29 18:55 UTC NOAA

LIRS 291855Z 18004KT CAVOK 25/24 Q1012


Station Type Date Time Source
LIRS Decoded METAR 2021/07/29 18:55 UTC NOAA

Grosseto, Italy (LIRS) 42-45N 011-04E 7M
Jul 29, 2021 - 02:55 PM EDT / 2021.07.29 1855 UTC
Wind: from the S (180 degrees) at 5 MPH (4 KT):0
Visibility: greater than 7 mile(s):0
Temperature: 77 F (25 C)
Dew Point: 75 F (24 C)
Relative Humidity: 94%
Pressure (altimeter): 29.88 in. Hg (1012 hPa)
ob: LIRS 291855Z 18004KT CAVOK 25/24 Q1012
cycle: 19

Station Type Date Time Source
LIRS TAF 2018/06/29 09:24 UTC NOAA

TAF TAF LIRS 290800Z 2909/2921 VRB03KT 9999 FEW030
BECMG 2911/2913 24015KT

Example: see airport list